Main page
METAR-TAF:

METAR-TAF

Airports :

Náměšť nad Oslavou, Czech Republic

latitude: 49-09-57N, longitude: 16-07-30E, elevation: 472 m

Current weather observation

The report was made 22 minutes ago, at 17:00 UTC
Wind 12 kt from the East
Temperature 15°C
Humidity 44%
Pressure 1012 hPa
Visibility 10 km or more
no clouds below 1500 m and no cumulonimbus

METAR: LKNA 221700Z 08012KT CAVOK 15/03 Q1012 NOSIG RMK BLU BLU

Time: 19:22 (17:22 UTC)

Forecast

The report was made 6 hours and 22 minutes ago, at 11:00 UTC
Forecast valid from 22 at 12 UTC to 23 at 12 UTC
Wind 10 kt from the Northeast
Visibility 10 km or more
no clouds below 1500 m and no cumulonimbus
Becoming
from 22 at 12 UTC to 22 at 14 UTC
Wind 14 kt from the East/Southeast with gusts up to 26 kt
Temporary
from 22 at 22 UTC to 23 at 12 UTC
Wind 18 kt from the East/Southeast with gusts up to 34 kt
Broken clouds at a height of 2000 ft
rain

TAF: LKNA 221100Z 2212/2312 04010KT CAVOK BECMG 2212/2214 11014G26KT TEMPO 2222/2312 12018G34KT RA BKN020

Weather observations and forecasts of more than 4000 airports (METAR and TAF reports).

The available stations are represented by yellow and red dots on the map.

Hover mouse over dot to see the name of the station.

Then click to see weather observations and forecasts.

To change the map : click on the green buttons with a black cross to zoom in, on the green button with a dash to zoom out, or on the green arrows for adjacent maps.


METAR-TAF: